createdAt,value
2022-09-14T00:01:41.695Z,18.60
2022-09-14T00:04:13.313Z,18.70
2022-09-14T00:06:41.908Z,18.70
2022-09-14T00:09:14.801Z,18.70
2022-09-14T00:11:42.754Z,18.70
2022-09-14T00:14:10.855Z,18.70
2022-09-14T00:16:43.583Z,18.60
2022-09-14T00:19:19.079Z,18.60
2022-09-14T00:21:51.735Z,18.60
2022-09-14T00:24:20.263Z,18.70
2022-09-14T00:26:48.387Z,18.80
2022-09-14T00:29:16.891Z,18.80
2022-09-14T00:31:46.490Z,18.70
2022-09-14T00:34:16.672Z,18.70
2022-09-14T00:36:47.398Z,18.70
2022-09-14T00:39:16.265Z,18.60
2022-09-14T00:41:47.884Z,18.60
2022-09-14T00:44:59.505Z,18.60
2022-09-14T00:47:30.710Z,18.60
2022-09-14T00:50:01.529Z,18.50
2022-09-14T00:52:32.767Z,18.60
2022-09-14T00:55:05.741Z,18.60
2022-09-14T00:57:39.705Z,18.50
2022-09-14T01:00:11.952Z,18.40
2022-09-14T01:02:41.559Z,18.40
2022-09-14T01:05:11.525Z,18.40
2022-09-14T01:08:03.636Z,18.40
2022-09-14T01:10:47.033Z,18.40
2022-09-14T01:13:29.689Z,18.50
2022-09-14T01:16:04.887Z,18.50
2022-09-14T01:18:39.588Z,18.50
2022-09-14T01:21:12.266Z,18.60
2022-09-14T01:23:50.451Z,18.70
2022-09-14T01:26:47.233Z,18.60
2022-09-14T01:29:19.253Z,18.50
2022-09-14T01:31:54.055Z,18.40
2022-09-14T01:34:32.626Z,18.40
2022-09-14T01:37:12.735Z,18.40
2022-09-14T01:39:44.108Z,18.50
2022-09-14T01:42:14.257Z,18.50
2022-09-14T01:44:48.310Z,18.50
2022-09-14T01:47:23.154Z,18.50
2022-09-14T01:49:58.064Z,18.50
2022-09-14T01:52:33.229Z,18.40
2022-09-14T01:55:07.749Z,18.50
2022-09-14T01:57:40.679Z,18.50
2022-09-14T02:00:16.665Z,18.50
2022-09-14T02:02:49.964Z,18.50
2022-09-14T02:05:23.755Z,18.50
2022-09-14T02:07:52.066Z,18.50
2022-09-14T02:10:20.042Z,18.40
2022-09-14T02:12:48.241Z,18.40
2022-09-14T02:15:18.168Z,18.40
2022-09-14T02:17:46.531Z,18.40
2022-09-14T02:20:23.284Z,18.40
2022-09-14T02:22:53.130Z,18.30
2022-09-14T02:25:22.103Z,18.30
2022-09-14T02:27:50.343Z,18.30
2022-09-14T02:30:20.775Z,18.20
2022-09-14T02:33:02.128Z,18.40
2022-09-14T02:35:37.538Z,18.40
2022-09-14T02:38:15.433Z,18.40
2022-09-14T02:40:53.133Z,18.50
2022-09-14T02:43:36.811Z,18.60
2022-09-14T02:46:17.606Z,18.50
2022-09-14T02:48:52.934Z,18.40
2022-09-14T02:51:32.772Z,18.40
2022-09-14T02:54:08.007Z,18.30
2022-09-14T02:56:37.852Z,18.40
2022-09-14T02:59:06.308Z,18.40
2022-09-14T03:01:35.741Z,18.40
2022-09-14T03:04:04.064Z,18.40
2022-09-14T03:06:32.629Z,18.40
2022-09-14T03:09:00.981Z,18.40
2022-09-14T03:11:29.008Z,18.40
2022-09-14T03:13:56.983Z,18.40
2022-09-14T03:16:25.068Z,18.40
2022-09-14T03:18:54.406Z,18.40
2022-09-14T03:21:22.644Z,18.50
2022-09-14T03:23:55.044Z,18.50
2022-09-14T03:26:25.284Z,18.50
2022-09-14T03:28:55.039Z,18.50
2022-09-14T03:31:23.129Z,18.50
2022-09-14T03:33:56.414Z,18.50
2022-09-14T03:36:25.601Z,18.50
2022-09-14T03:38:57.515Z,18.40
2022-09-14T03:41:26.007Z,18.40
2022-09-14T03:43:54.090Z,18.40
2022-09-14T03:46:26.563Z,18.50
2022-09-14T03:48:57.059Z,18.50
2022-09-14T03:51:25.205Z,18.40
2022-09-14T03:53:53.205Z,18.30
2022-09-14T03:56:23.094Z,18.40
2022-09-14T03:58:52.037Z,18.30
2022-09-14T04:01:22.618Z,18.40
2022-09-14T04:03:51.986Z,18.40
2022-09-14T04:06:21.352Z,18.40
2022-09-14T04:08:49.464Z,18.40
2022-09-14T04:11:19.975Z,18.30
2022-09-14T04:13:49.131Z,18.30
2022-09-14T04:16:18.625Z,18.40
2022-09-14T04:18:46.711Z,18.40
2022-09-14T04:21:17.529Z,18.50
2022-09-14T04:24:12.726Z,18.50
2022-09-14T04:26:35.703Z,18.60
2022-09-14T04:29:03.951Z,18.60
2022-09-14T04:31:32.696Z,18.60
2022-09-14T04:34:00.657Z,18.60
2022-09-14T04:36:31.012Z,18.60
2022-09-14T04:39:03.692Z,18.70
2022-09-14T04:41:32.894Z,18.60
2022-09-14T04:44:01.476Z,18.50
2022-09-14T04:46:32.418Z,18.40
2022-09-14T04:49:00.580Z,18.30
2022-09-14T04:51:31.079Z,18.40
2022-09-14T04:54:01.719Z,18.40
2022-09-14T04:56:34.207Z,18.30
2022-09-14T04:59:04.803Z,18.40
2022-09-14T05:01:37.815Z,18.30
2022-09-14T05:04:07.175Z,18.40
2022-09-14T05:06:38.280Z,18.40
2022-09-14T05:09:13.112Z,18.40
2022-09-14T05:11:41.816Z,18.40
2022-09-14T05:14:13.095Z,18.40
2022-09-14T05:16:43.151Z,18.50
2022-09-14T05:19:15.665Z,18.50
2022-09-14T05:21:44.115Z,18.50
2022-09-14T05:24:19.055Z,18.50
2022-09-14T05:26:47.908Z,18.50
2022-09-14T05:29:17.878Z,18.50
2022-09-14T05:31:46.435Z,18.50
2022-09-14T05:34:15.328Z,18.40
2022-09-14T05:36:43.367Z,18.40
2022-09-14T05:39:12.889Z,18.50
2022-09-14T05:41:40.845Z,18.50
2022-09-14T05:44:09.167Z,18.50
2022-09-14T05:47:05.394Z,18.50
2022-09-14T05:49:33.617Z,18.50
2022-09-14T05:52:01.587Z,18.50
2022-09-14T05:54:31.053Z,18.50
2022-09-14T05:56:59.018Z,18.50
2022-09-14T05:59:27.008Z,18.60
2022-09-14T06:01:55.092Z,18.60
2022-09-14T06:04:23.170Z,18.70
2022-09-14T06:07:14.501Z,18.70
2022-09-14T06:09:40.692Z,18.80
2022-09-14T06:12:09.116Z,18.70
2022-09-14T06:14:37.071Z,18.70
2022-09-14T06:17:06.496Z,18.80
2022-09-14T06:19:34.446Z,18.80
2022-09-14T06:22:02.460Z,18.90
2022-09-14T06:24:30.797Z,18.90
2022-09-14T06:27:00.161Z,18.90
2022-09-14T06:29:29.458Z,18.80
2022-09-14T06:31:57.419Z,18.80
2022-09-14T06:34:25.507Z,18.80
2022-09-14T06:36:53.595Z,18.80
2022-09-14T06:39:21.616Z,18.90
2022-09-14T06:41:51.817Z,18.90
2022-09-14T06:44:21.364Z,18.80
2022-09-14T06:46:49.345Z,18.90
2022-09-14T06:49:20.607Z,19.00
2022-09-14T06:51:48.884Z,19.00
2022-09-14T06:54:18.304Z,19.10
2022-09-14T06:56:47.818Z,19.00
2022-09-14T06:59:18.470Z,19.00
2022-09-14T07:01:49.252Z,19.20
2022-09-14T07:04:17.970Z,19.30
2022-09-14T07:06:49.556Z,19.20
2022-09-14T07:09:20.088Z,19.30
2022-09-14T07:11:49.067Z,19.30
2022-09-14T07:14:17.549Z,19.20
2022-09-14T07:16:47.079Z,19.10
2022-09-14T07:19:16.236Z,18.90
2022-09-14T07:21:44.480Z,18.80
2022-09-14T07:24:14.768Z,18.70
2022-09-14T07:26:43.799Z,18.50
2022-09-14T07:29:14.267Z,18.60
2022-09-14T07:31:44.600Z,18.50
2022-09-14T07:34:15.183Z,18.50
2022-09-14T07:36:43.936Z,18.60
2022-09-14T07:39:14.221Z,18.70
2022-09-14T07:41:44.465Z,18.70
2022-09-14T07:44:17.621Z,18.70
2022-09-14T07:46:47.056Z,18.70
2022-09-14T07:49:18.164Z,18.80
2022-09-14T07:51:47.056Z,18.90
2022-09-14T07:54:17.580Z,18.80
2022-09-14T07:56:46.259Z,18.80
2022-09-14T07:59:35.968Z,18.70
2022-09-14T08:02:06.011Z,18.90
2022-09-14T08:04:35.966Z,18.90
2022-09-14T08:07:04.403Z,19.00
2022-09-14T08:09:32.484Z,19.00
2022-09-14T08:12:00.541Z,19.10
2022-09-14T08:14:28.601Z,19.10
2022-09-14T08:16:56.920Z,19.20
2022-09-14T08:19:26.363Z,19.20
2022-09-14T08:21:55.807Z,19.30
2022-09-14T08:24:23.826Z,19.30
2022-09-14T08:26:51.935Z,19.30
2022-09-14T08:29:20.763Z,19.30
2022-09-14T08:31:51.578Z,19.30
2022-09-14T08:34:20.690Z,19.40
2022-09-14T08:36:49.652Z,19.50
2022-09-14T08:39:19.929Z,19.50
2022-09-14T08:41:54.717Z,19.30
2022-09-14T08:44:28.133Z,19.50
2022-09-14T08:47:02.451Z,19.40
2022-09-14T08:49:44.205Z,19.40
2022-09-14T08:52:22.768Z,19.50
2022-09-14T08:55:00.342Z,19.50
2022-09-14T08:57:35.410Z,19.60
2022-09-14T09:00:11.490Z,19.70
2022-09-14T09:03:25.582Z,19.50
2022-09-14T09:06:01.223Z,19.40
2022-09-14T09:08:38.765Z,19.50
2022-09-14T09:11:18.363Z,19.50
2022-09-14T09:13:48.105Z,19.50
2022-09-14T09:16:22.834Z,19.50
2022-09-14T09:18:56.081Z,19.50
2022-09-14T09:21:29.603Z,19.50
2022-09-14T09:24:16.462Z,19.60
2022-09-14T09:26:45.833Z,19.70
2022-09-14T09:29:14.288Z,19.80
2022-09-14T09:31:47.428Z,19.80
2022-09-14T09:34:18.950Z,19.80
2022-09-14T09:36:49.928Z,19.80
2022-09-14T09:39:18.480Z,19.90
2022-09-14T09:41:52.613Z,19.90
2022-09-14T09:44:20.619Z,19.80
2022-09-14T09:46:52.976Z,19.80
2022-09-14T09:49:26.560Z,19.80
2022-09-14T09:51:54.956Z,19.90
2022-09-14T09:54:29.075Z,19.90
2022-09-14T09:57:00.851Z,20.00
2022-09-14T09:59:35.185Z,20.10
2022-09-14T10:02:25.507Z,20.10
2022-09-14T10:05:01.188Z,20.20
2022-09-14T10:07:32.357Z,20.20
2022-09-14T10:10:06.813Z,20.20
2022-09-14T10:12:38.731Z,20.30
2022-09-14T10:15:18.319Z,20.30
2022-09-14T10:18:04.756Z,20.30
2022-09-14T10:20:33.218Z,20.30
2022-09-14T10:23:22.980Z,20.30
2022-09-14T10:25:53.610Z,20.50
2022-09-14T10:28:29.594Z,20.50
2022-09-14T10:31:02.973Z,20.70
2022-09-14T10:33:31.246Z,20.70
2022-09-14T10:36:11.324Z,20.70
2022-09-14T10:38:43.731Z,20.50
2022-09-14T10:41:24.923Z,20.60
2022-09-14T10:44:34.475Z,20.70
2022-09-14T10:47:24.214Z,20.70
2022-09-14T10:50:11.388Z,20.90
2022-09-14T10:52:52.162Z,20.90
2022-09-14T10:55:34.226Z,20.80
2022-09-14T10:58:24.613Z,20.90
2022-09-14T11:01:07.391Z,20.80
2022-09-14T11:03:53.596Z,20.80
2022-09-14T11:06:38.505Z,20.80
2022-09-14T11:09:20.649Z,20.80
2022-09-14T11:12:02.898Z,20.80
2022-09-14T11:14:57.703Z,20.80
2022-09-14T11:17:53.961Z,20.50
2022-09-14T11:20:32.973Z,20.50
2022-09-14T11:23:21.103Z,20.50
2022-09-14T11:25:56.259Z,20.60
2022-09-14T11:28:29.339Z,20.70
2022-09-14T11:31:06.485Z,20.90
2022-09-14T11:33:41.044Z,21.10
2022-09-14T11:36:18.539Z,21.20
2022-09-14T11:38:54.452Z,21.40
2022-09-14T11:41:30.080Z,21.50
2022-09-14T11:44:02.585Z,21.60
2022-09-14T11:46:35.346Z,21.60
2022-09-14T11:49:18.723Z,21.60
2022-09-14T11:51:53.698Z,21.40
2022-09-14T11:54:23.867Z,21.40
2022-09-14T11:57:03.420Z,21.50
2022-09-14T11:59:50.657Z,21.60
2022-09-14T12:03:00.911Z,21.70
2022-09-14T12:05:39.383Z,21.70
2022-09-14T12:08:37.919Z,21.80
2022-09-14T12:11:34.245Z,21.80
2022-09-14T12:14:30.348Z,21.80
2022-09-14T12:17:35.623Z,21.90
2022-09-14T12:20:41.346Z,21.80
2022-09-14T12:23:24.697Z,21.80
2022-09-14T12:26:02.520Z,21.70
2022-09-14T12:28:50.530Z,21.50
2022-09-14T12:31:40.866Z,21.50
2022-09-14T12:34:27.995Z,21.60
2022-09-14T12:37:33.502Z,21.70
2022-09-14T12:40:37.306Z,21.70
2022-09-14T12:43:49.109Z,21.70
2022-09-14T12:46:39.979Z,21.80
2022-09-14T12:49:30.494Z,21.80
2022-09-14T12:52:06.384Z,21.80
2022-09-14T12:54:52.345Z,21.80
2022-09-14T12:57:34.227Z,21.60
2022-09-14T13:00:13.687Z,21.60
2022-09-14T13:03:17.485Z,21.60
2022-09-14T13:05:46.440Z,21.60
2022-09-14T13:08:22.045Z,21.60
2022-09-14T13:10:54.102Z,21.40
2022-09-14T13:13:26.787Z,21.60
2022-09-14T13:15:57.821Z,21.70
2022-09-14T13:18:31.991Z,21.70
2022-09-14T13:21:02.423Z,21.80
2022-09-14T13:23:37.053Z,21.90
2022-09-14T13:26:13.460Z,21.80
2022-09-14T13:28:44.895Z,21.80
2022-09-14T13:31:15.695Z,21.80
2022-09-14T13:33:49.926Z,21.80
2022-09-14T13:36:22.271Z,21.80
2022-09-14T13:38:51.380Z,21.80
2022-09-14T13:41:23.228Z,21.70
2022-09-14T13:43:54.794Z,21.80
2022-09-14T13:46:24.109Z,21.90
2022-09-14T13:48:53.466Z,21.90
2022-09-14T13:51:25.793Z,22.00
2022-09-14T13:53:56.256Z,22.00
2022-09-14T13:56:31.300Z,21.90
2022-09-14T13:59:23.502Z,21.80
2022-09-14T14:01:58.736Z,21.80
2022-09-14T14:04:35.370Z,21.60
2022-09-14T14:07:16.526Z,21.60
2022-09-14T14:09:50.589Z,21.40
2022-09-14T14:12:29.772Z,21.30
2022-09-14T14:15:00.281Z,21.40
2022-09-14T14:17:37.963Z,21.40
2022-09-14T14:20:32.954Z,21.50
2022-09-14T14:23:15.147Z,21.40
2022-09-14T14:25:47.353Z,21.20
2022-09-14T14:28:20.954Z,21.40
2022-09-14T14:30:49.452Z,21.30
2022-09-14T14:33:19.886Z,21.40
2022-09-14T14:35:49.342Z,21.40
2022-09-14T14:38:18.054Z,21.30
2022-09-14T14:40:48.828Z,21.30
2022-09-14T14:43:21.589Z,21.40
2022-09-14T14:45:51.070Z,21.50
2022-09-14T14:48:19.069Z,21.50
2022-09-14T14:50:47.309Z,21.60
2022-09-14T14:53:15.498Z,21.60
2022-09-14T14:55:45.320Z,21.70
2022-09-14T14:58:18.814Z,21.70
2022-09-14T15:00:48.144Z,21.60
2022-09-14T15:03:16.785Z,21.60
2022-09-14T15:05:46.673Z,21.70
2022-09-14T15:08:17.638Z,21.70
2022-09-14T15:10:45.981Z,21.60
2022-09-14T15:13:14.721Z,21.70
2022-09-14T15:15:44.413Z,21.70
2022-09-14T15:18:12.381Z,21.80
2022-09-14T15:20:40.360Z,22.00
2022-09-14T15:23:09.914Z,22.00
2022-09-14T15:25:37.968Z,22.00
2022-09-14T15:28:06.214Z,22.00
2022-09-14T15:30:34.181Z,22.20
2022-09-14T15:33:03.735Z,22.30
2022-09-14T15:35:31.731Z,22.20
2022-09-14T15:37:59.707Z,22.30
2022-09-14T15:40:27.809Z,22.30
2022-09-14T15:42:55.860Z,22.40
2022-09-14T15:45:23.879Z,22.50
2022-09-14T15:47:52.035Z,22.40
2022-09-14T15:50:21.883Z,22.50
2022-09-14T15:52:49.942Z,22.50
2022-09-14T15:55:18.007Z,22.40
2022-09-14T15:57:45.947Z,22.40
2022-09-14T16:00:17.107Z,22.40
2022-09-14T16:02:45.423Z,22.50
2022-09-14T16:05:16.141Z,22.50
2022-09-14T16:07:50.948Z,22.50
2022-09-14T16:10:21.486Z,22.50
2022-09-14T16:12:50.038Z,22.50
2022-09-14T16:15:18.125Z,22.50
2022-09-14T16:17:52.064Z,22.60
2022-09-14T16:20:21.175Z,22.40
2022-09-14T16:22:51.507Z,22.30
2022-09-14T16:25:19.682Z,22.00
2022-09-14T16:27:48.829Z,21.80
2022-09-14T16:30:17.060Z,21.80
2022-09-14T16:32:45.649Z,21.80
2022-09-14T16:35:13.588Z,21.60
2022-09-14T16:37:41.561Z,21.60
2022-09-14T16:40:12.854Z,21.40
2022-09-14T16:42:40.878Z,21.50
2022-09-14T16:45:10.297Z,21.50
2022-09-14T16:47:38.296Z,21.50
2022-09-14T16:50:07.136Z,21.50
2022-09-14T16:52:35.207Z,21.40
2022-09-14T16:55:03.132Z,21.30
2022-09-14T16:57:32.513Z,21.40
2022-09-14T17:00:00.454Z,21.30
2022-09-14T17:02:29.000Z,21.30
2022-09-14T17:04:57.536Z,21.10
2022-09-14T17:07:25.712Z,20.80
2022-09-14T17:09:53.687Z,20.60
2022-09-14T17:12:21.660Z,20.30
2022-09-14T17:14:51.036Z,20.20
2022-09-14T17:17:19.002Z,20.30
2022-09-14T17:19:46.956Z,20.20
2022-09-14T17:22:15.486Z,20.20
2022-09-14T17:24:43.479Z,20.20
2022-09-14T17:27:11.453Z,20.20
2022-09-14T17:29:40.710Z,20.10
2022-09-14T17:32:14.676Z,20.20
2022-09-14T17:34:43.298Z,20.10
2022-09-14T17:37:11.430Z,20.00
2022-09-14T17:39:39.367Z,19.80
2022-09-14T17:42:07.864Z,19.70
2022-09-14T17:44:36.675Z,19.80
2022-09-14T17:47:05.195Z,19.60
2022-09-14T17:49:34.546Z,19.60
2022-09-14T17:52:03.166Z,19.60
2022-09-14T17:54:31.340Z,19.60
2022-09-14T17:56:59.281Z,19.50
2022-09-14T17:59:27.453Z,19.60
2022-09-14T18:01:55.515Z,19.50
2022-09-14T18:04:23.834Z,19.60
2022-09-14T18:06:53.220Z,19.60
2022-09-14T18:09:24.702Z,19.60
2022-09-14T18:11:55.922Z,19.70
2022-09-14T18:14:24.311Z,19.70
2022-09-14T18:16:52.560Z,19.70
2022-09-14T18:19:20.849Z,19.70
2022-09-14T18:21:52.306Z,19.50
2022-09-14T18:24:22.584Z,19.40
2022-09-14T18:26:50.853Z,19.50
2022-09-14T18:29:23.089Z,19.60
2022-09-14T18:31:52.604Z,19.60
2022-09-14T18:34:23.425Z,19.50
2022-09-14T18:36:52.992Z,19.40
2022-09-14T18:39:22.538Z,19.50
2022-09-14T18:41:53.623Z,19.60
2022-09-14T18:44:22.565Z,19.60
2022-09-14T18:46:51.672Z,19.60
2022-09-14T18:49:20.921Z,19.50
2022-09-14T18:51:48.937Z,19.30
2022-09-14T18:54:17.190Z,19.40
2022-09-14T18:56:46.656Z,19.40
2022-09-14T18:59:16.622Z,19.50
2022-09-14T19:01:44.968Z,19.60
2022-09-14T19:04:15.717Z,19.50
2022-09-14T19:06:44.609Z,19.40
2022-09-14T19:09:12.931Z,19.30
2022-09-14T19:11:40.949Z,19.30
2022-09-14T19:14:12.825Z,19.20
2022-09-14T19:16:43.005Z,19.10
2022-09-14T19:19:15.248Z,19.20
2022-09-14T19:21:43.852Z,19.20
2022-09-14T19:24:14.175Z,19.20
2022-09-14T19:26:45.562Z,19.20
2022-09-14T19:29:17.541Z,19.20
2022-09-14T19:31:48.256Z,19.10
2022-09-14T19:34:16.576Z,19.20
2022-09-14T19:36:44.729Z,19.20
2022-09-14T19:39:16.169Z,19.30
2022-09-14T19:41:47.738Z,19.30
2022-09-14T19:44:18.689Z,19.20
2022-09-14T19:46:46.822Z,19.30
2022-09-14T19:49:17.417Z,19.30
2022-09-14T19:51:46.319Z,19.30
2022-09-14T19:54:14.942Z,19.20
2022-09-14T19:56:43.440Z,19.30
2022-09-14T19:59:11.757Z,19.30
2022-09-14T20:01:42.338Z,19.20
2022-09-14T20:04:11.463Z,19.10
2022-09-14T20:06:43.449Z,19.10
2022-09-14T20:09:14.243Z,19.10
2022-09-14T20:11:44.324Z,19.10
2022-09-14T20:14:15.622Z,19.10
2022-09-14T20:16:47.807Z,19.10
2022-09-14T20:19:18.570Z,19.10
2022-09-14T20:21:48.197Z,19.00
2022-09-14T20:24:19.346Z,19.00
2022-09-14T20:26:49.348Z,19.10
2022-09-14T20:29:19.580Z,19.10
2022-09-14T20:31:49.486Z,19.10
2022-09-14T20:34:20.348Z,19.20
2022-09-14T20:36:48.988Z,19.30
2022-09-14T20:39:17.499Z,19.20
2022-09-14T20:41:45.765Z,19.30
2022-09-14T20:44:13.834Z,19.30
2022-09-14T20:46:44.485Z,19.40
2022-09-14T20:49:17.816Z,19.50
2022-09-14T20:51:46.089Z,19.50
2022-09-14T20:54:18.294Z,19.40
2022-09-14T20:56:47.111Z,19.40
2022-09-14T20:59:18.366Z,19.30
2022-09-14T21:01:49.206Z,19.40
2022-09-14T21:04:22.006Z,19.40
2022-09-14T21:06:53.029Z,19.50
2022-09-14T21:09:24.361Z,19.30
2022-09-14T21:11:53.568Z,19.10
2022-09-14T21:14:22.115Z,19.20
2022-09-14T21:16:55.205Z,19.10
2022-09-14T21:19:27.936Z,19.10
2022-09-14T21:21:56.916Z,19.00
2022-09-14T21:24:25.650Z,18.90
2022-09-14T21:26:53.673Z,19.00
2022-09-14T21:29:24.397Z,18.90
2022-09-14T21:31:53.362Z,18.80
2022-09-14T21:34:21.742Z,18.90
2022-09-14T21:36:52.673Z,18.80
2022-09-14T21:39:23.833Z,18.90
2022-09-14T21:41:58.444Z,18.90
2022-09-14T21:44:30.560Z,18.90
2022-09-14T21:46:58.830Z,18.90
2022-09-14T21:49:26.955Z,18.90
2022-09-14T21:51:56.268Z,19.00
2022-09-14T21:54:24.286Z,19.10
2022-09-14T21:56:53.614Z,19.10
2022-09-14T21:59:23.624Z,19.10
2022-09-14T22:01:52.368Z,19.10
2022-09-14T22:04:23.910Z,19.00
2022-09-14T22:06:53.059Z,19.10
2022-09-14T22:09:25.623Z,19.00
2022-09-14T22:11:54.195Z,19.00
2022-09-14T22:14:25.919Z,19.00
2022-09-14T22:16:54.727Z,19.10
2022-09-14T22:19:25.142Z,19.10
2022-09-14T22:21:53.318Z,19.10
2022-09-14T22:24:37.001Z,19.00
2022-09-14T22:27:07.955Z,19.00
2022-09-14T22:29:35.943Z,19.00
2022-09-14T22:32:04.261Z,19.10
2022-09-14T22:34:35.014Z,19.10
2022-09-14T22:37:03.127Z,19.00
2022-09-14T22:39:32.685Z,18.90
2022-09-14T22:42:00.721Z,18.90
2022-09-14T22:44:28.732Z,18.90
2022-09-14T22:46:56.704Z,18.90
2022-09-14T22:49:24.727Z,19.00
2022-09-14T22:51:52.653Z,19.10
2022-09-14T22:54:20.611Z,19.10
2022-09-14T22:56:49.894Z,19.20
2022-09-14T22:59:17.830Z,19.20
2022-09-14T23:01:46.052Z,19.20
2022-09-14T23:04:15.620Z,19.20
2022-09-14T23:06:47.271Z,19.10
2022-09-14T23:09:18.629Z,19.00
2022-09-14T23:11:47.259Z,19.00
2022-09-14T23:14:17.996Z,19.00
2022-09-14T23:16:46.688Z,19.20
2022-09-14T23:19:17.834Z,19.30
2022-09-14T23:21:46.563Z,19.50
2022-09-14T23:24:15.160Z,19.50
2022-09-14T23:26:43.431Z,19.50
2022-09-14T23:29:17.469Z,19.50
2022-09-14T23:31:45.738Z,19.40
2022-09-14T23:34:13.943Z,19.30
2022-09-14T23:36:42.017Z,19.20
2022-09-14T23:39:10.186Z,19.10
2022-09-14T23:41:39.109Z,19.20
2022-09-14T23:44:07.174Z,19.30
2022-09-14T23:46:36.500Z,19.40
2022-09-14T23:49:04.584Z,19.30
2022-09-14T23:51:33.222Z,19.20
2022-09-14T23:54:01.143Z,19.20
2022-09-14T23:56:29.104Z,19.20
2022-09-14T23:58:57.163Z,19.20
